Time;durP1;ratioP1;P1;durP2;ratioP2;P2;SDS_P1;SDS_P2;PMS_P1;PMS_P2;Temp;Humidity;BMP_temperature;BMP_pressure;BME280_temperature;BME280_humidity;BME280_pressure;Samples;Min_cycle;Max_cycle;Signal;HPM_P1;HPM_P2
2024/01/19 00:02:10;;;;;;;2.88;1.30;;;20.60;49.40;;;;;;5037455;28;20082;-67
2024/01/19 00:04:36;;;;;;;5.03;1.50;;;20.60;49.40;;;;;;5041175;28;20025;-67
2024/01/19 00:07:02;;;;;;;2.33;1.30;;;20.60;49.40;;;;;;5039552;28;20033;-67
2024/01/19 00:09:28;;;;;;;2.88;1.35;;;20.60;49.40;;;;;;5042623;28;20029;-67
2024/01/19 00:11:53;;;;;;;2.95;1.50;;;20.60;49.40;;;;;;5035175;28;20113;-67
2024/01/19 00:14:19;;;;;;;2.72;1.30;;;20.60;49.40;;;;;;5040142;28;20128;-67
2024/01/19 00:16:45;;;;;;;2.20;1.08;;;20.50;49.40;;;;;;5036737;28;20036;-67
2024/01/19 00:19:10;;;;;;;2.33;1.30;;;20.50;49.40;;;;;;5040586;28;20030;-67
2024/01/19 00:21:46;;;;;;;3.08;1.30;;;20.50;49.40;;;;;;5041892;28;20035;-67
2024/01/19 00:24:12;;;;;;;3.15;1.50;;;20.50;49.40;;;;;;5040452;28;20041;-67
2024/01/19 00:26:38;;;;;;;2.35;1.30;;;20.50;49.50;;;;;;5041177;28;20078;-67
2024/01/19 00:29:04;;;;;;;3.38;1.80;;;20.50;49.50;;;;;;5033166;28;20428;-67
2024/01/19 00:31:30;;;;;;;2.88;1.30;;;20.50;49.50;;;;;;5038633;28;20037;-67
2024/01/19 00:33:56;;;;;;;4.18;1.30;;;20.40;49.50;;;;;;5042531;28;20071;-63
2024/01/19 00:36:22;;;;;;;2.45;1.23;;;20.40;49.90;;;;;;5044622;28;20022;-63
2024/01/19 00:38:48;;;;;;;2.60;1.20;;;20.40;49.40;;;;;;5040175;28;20033;-62
2024/01/19 00:41:16;;;;;;;1.95;1.20;;;20.40;49.50;;;;;;5046619;28;20032;-61
2024/01/19 00:43:42;;;;;;;2.20;1.30;;;20.40;49.50;;;;;;5038884;28;20025;-64
2024/01/19 00:46:08;;;;;;;3.20;1.30;;;20.40;50.00;;;;;;5041068;28;20115;-64
2024/01/19 00:48:33;;;;;;;2.15;1.10;;;20.40;49.50;;;;;;5040229;28;20033;-64
2024/01/19 00:50:59;;;;;;;2.10;1.27;;;20.30;49.50;;;;;;5040332;28;20030;-63
2024/01/19 00:53:25;;;;;;;1.83;1.13;;;20.30;49.50;;;;;;5040688;28;20037;-64
2024/01/19 00:55:50;;;;;;;3.38;1.50;;;20.30;49.50;;;;;;5040773;28;20381;-64
2024/01/19 00:58:16;;;;;;;2.05;1.00;;;20.30;49.50;;;;;;5042200;28;20090;-64
2024/01/19 01:00:42;;;;;;;2.03;1.10;;;20.30;49.50;;;;;;5041046;28;20021;-64
2024/01/19 01:03:08;;;;;;;2.22;1.17;;;20.30;49.50;;;;;;5038257;28;20033;-71
2024/01/19 01:05:34;;;;;;;1.85;1.20;;;20.30;49.50;;;;;;5038543;28;20025;-71
2024/01/19 01:08:00;;;;;;;2.95;1.20;;;20.30;49.50;;;;;;5039805;28;20457;-71
2024/01/19 01:10:30;;;;;;;2.00;1.00;;;20.30;49.50;;;;;;5038973;28;20044;-72
2024/01/19 01:12:57;;;;;;;2.72;1.50;;;20.20;49.50;;;;;;5041564;28;20485;-69
2024/01/19 01:15:23;;;;;;;2.17;1.10;;;20.20;49.50;;;;;;5039590;28;20108;-71
2024/01/19 01:17:49;;;;;;;2.97;1.10;;;20.20;49.50;;;;;;5039991;28;20572;-72
2024/01/19 01:20:15;;;;;;;2.78;1.20;;;20.20;49.50;;;;;;5041218;28;20032;-72
2024/01/19 01:22:41;;;;;;;2.53;1.20;;;20.20;49.50;;;;;;5037389;28;20478;-69
2024/01/19 01:25:06;;;;;;;2.10;1.10;;;20.20;49.50;;;;;;5043656;28;20028;-72
2024/01/19 01:27:32;;;;;;;2.65;1.05;;;20.20;49.50;;;;;;5040284;28;20428;-71
2024/01/19 01:29:58;;;;;;;2.47;1.40;;;20.20;49.50;;;;;;5040003;28;20067;-71
2024/01/19 01:32:23;;;;;;;2.05;0.98;;;20.20;49.50;;;;;;5038616;28;20044;-71
2024/01/19 01:34:49;;;;;;;1.95;1.10;;;20.20;49.50;;;;;;5039864;28;20373;-72
2024/01/19 01:37:14;;;;;;;2.15;1.20;;;20.10;49.50;;;;;;5038174;28;20132;-69
2024/01/19 01:39:40;;;;;;;2.30;1.10;;;20.10;49.50;;;;;;5037969;28;20611;-71
2024/01/19 01:42:06;;;;;;;1.88;1.10;;;20.10;49.50;;;;;;5040598;28;20104;-61
2024/01/19 01:44:31;;;;;;;1.88;1.02;;;20.10;49.60;;;;;;5038539;28;20033;-61
2024/01/19 01:46:57;;;;;;;2.75;1.08;;;20.10;49.60;;;;;;5038241;28;20022;-61
2024/01/19 01:49:23;;;;;;;1.88;1.17;;;20.10;49.60;;;;;;5037653;28;20030;-63
2024/01/19 01:51:49;;;;;;;2.60;1.10;;;20.10;49.60;;;;;;5039163;28;20036;-61
2024/01/19 01:54:15;;;;;;;2.45;1.20;;;20.10;49.60;;;;;;5035597;28;20132;-63
2024/01/19 01:56:41;;;;;;;1.98;1.00;;;20.00;49.50;;;;;;5038905;28;20493;-63
2024/01/19 01:59:08;;;;;;;1.60;1.00;;;20.10;49.60;;;;;;5040410;28;20025;-63
2024/01/19 02:01:34;;;;;;;1.65;1.00;;;20.00;49.60;;;;;;5040337;28;20029;-63
2024/01/19 02:04:01;;;;;;;2.33;1.13;;;20.00;49.60;;;;;;5035611;28;20398;-63
2024/01/19 02:06:28;;;;;;;2.05;1.08;;;20.00;49.60;;;;;;5040657;28;20524;-64
2024/01/19 02:08:55;;;;;;;2.47;1.17;;;20.00;50.10;;;;;;5039062;28;20063;-63
2024/01/19 02:11:21;;;;;;;1.77;1.05;;;20.00;49.60;;;;;;5041050;28;20388;-63
2024/01/19 02:13:47;;;;;;;1.23;0.90;;;20.00;49.60;;;;;;5039965;28;20026;-60
2024/01/19 02:16:12;;;;;;;1.88;1.10;;;20.00;49.70;;;;;;5041927;28;20017;-62
2024/01/19 02:18:38;;;;;;;1.50;0.88;;;19.90;49.60;;;;;;5038290;28;20021;-60
2024/01/19 02:21:04;;;;;;;1.77;1.10;;;19.90;49.60;;;;;;5035697;28;20104;-60
2024/01/19 02:23:35;;;;;;;1.75;0.85;;;19.90;49.60;;;;;;5039542;28;20111;-60
2024/01/19 02:26:03;;;;;;;1.60;0.98;;;19.90;49.60;;;;;;5038212;28;20032;-63
2024/01/19 02:28:29;;;;;;;1.73;0.80;;;19.90;49.60;;;;;;5037757;28;20034;-61
2024/01/19 02:30:54;;;;;;;1.95;0.80;;;19.90;49.70;;;;;;5035960;28;20033;-60
2024/01/19 02:33:20;;;;;;;1.38;0.98;;;19.90;49.70;;;;;;5036788;28;20029;-60
2024/01/19 02:35:46;;;;;;;2.53;1.00;;;19.90;49.70;;;;;;5040071;28;20381;-63
2024/01/19 02:38:11;;;;;;;1.55;0.95;;;19.90;49.70;;;;;;5039507;28;20439;-60
2024/01/19 02:40:37;;;;;;;1.50;0.90;;;19.90;49.70;;;;;;5039438;28;20105;-61
2024/01/19 02:43:03;;;;;;;1.88;1.00;;;19.90;49.70;;;;;;5038217;28;20040;-61
2024/01/19 02:45:28;;;;;;;2.13;1.10;;;19.80;49.70;;;;;;5039881;28;20072;-62
2024/01/19 02:47:54;;;;;;;1.75;1.10;;;19.80;49.70;;;;;;5035184;28;20026;-62
2024/01/19 02:50:19;;;;;;;1.60;1.00;;;19.80;49.70;;;;;;5038506;28;20030;-60
2024/01/19 02:52:45;;;;;;;1.88;1.00;;;19.80;49.70;;;;;;5038951;28;20040;-67
2024/01/19 02:55:11;;;;;;;1.67;0.80;;;19.80;49.70;;;;;;5038065;28;20435;-67
2024/01/19 02:57:36;;;;;;;1.80;1.00;;;19.80;49.70;;;;;;5039837;28;20024;-67
2024/01/19 03:00:04;;;;;;;2.03;0.90;;;19.80;49.80;;;;;;5040036;28;20032;-67
2024/01/19 03:02:30;;;;;;;1.40;0.88;;;19.80;49.80;;;;;;5036558;28;20103;-68
2024/01/19 03:04:56;;;;;;;1.33;0.90;;;19.80;49.80;;;;;;5037620;28;20450;-69
2024/01/19 03:07:22;;;;;;;1.52;0.90;;;19.70;49.70;;;;;;5037734;28;20032;-69
2024/01/19 03:09:48;;;;;;;2.00;0.85;;;19.80;49.80;;;;;;5033800;28;20112;-70
2024/01/19 03:12:14;;;;;;;1.73;0.90;;;19.80;49.80;;;;;;5038959;28;20132;-68
2024/01/19 03:14:39;;;;;;;1.25;0.90;;;19.70;49.80;;;;;;5037881;28;20032;-69
2024/01/19 03:17:05;;;;;;;1.48;0.95;;;19.70;49.80;;;;;;5038378;28;20473;-68
2024/01/19 03:19:31;;;;;;;2.13;1.00;;;19.70;49.80;;;;;;5033159;28;20033;-67
2024/01/19 03:21:57;;;;;;;2.45;1.13;;;19.70;49.90;;;;;;5035704;28;20075;-68
2024/01/19 03:24:23;;;;;;;1.73;1.10;;;19.70;49.80;;;;;;5039492;28;20030;-67
2024/01/19 03:26:48;;;;;;;1.95;1.13;;;19.70;49.80;;;;;;5038538;28;20109;-67
2024/01/19 03:29:15;;;;;;;2.03;1.00;;;19.70;49.90;;;;;;5038872;28;20044;-67
2024/01/19 03:31:41;;;;;;;1.70;0.75;;;19.70;49.90;;;;;;5036939;28;20079;-67
2024/01/19 03:34:06;;;;;;;1.65;0.93;;;19.70;49.90;;;;;;5034794;28;20026;-67
2024/01/19 03:36:32;;;;;;;1.92;0.93;;;19.70;49.90;;;;;;5033600;28;20041;-67
2024/01/19 03:38:58;;;;;;;1.58;0.90;;;19.70;49.90;;;;;;5036735;28;20425;-67
2024/01/19 03:41:23;;;;;;;1.42;0.90;;;19.70;49.90;;;;;;5037441;28;20025;-67
2024/01/19 03:43:49;;;;;;;1.40;0.90;;;19.60;49.90;;;;;;5034381;28;20109;-67
2024/01/19 03:46:14;;;;;;;1.25;0.75;;;19.70;50.00;;;;;;5037675;28;20032;-67
2024/01/19 03:48:40;;;;;;;1.30;0.80;;;19.70;50.00;;;;;;5036584;28;20131;-67
2024/01/19 03:51:06;;;;;;;1.75;0.90;;;19.60;49.90;;;;;;5036211;28;20495;-67
2024/01/19 03:53:31;;;;;;;1.45;0.90;;;19.70;50.00;;;;;;5038353;28;20374;-67
2024/01/19 03:55:57;;;;;;;1.58;0.80;;;19.60;49.90;;;;;;5038551;28;20100;-68
2024/01/19 03:58:22;;;;;;;1.40;0.90;;;19.60;50.00;;;;;;5036923;28;20438;-67
2024/01/19 04:00:48;;;;;;;1.77;0.85;;;19.60;49.90;;;;;;5037656;28;21353;-67
2024/01/19 04:03:15;;;;;;;1.05;0.80;;;19.60;49.90;;;;;;5037709;28;20036;-67
2024/01/19 04:05:42;;;;;;;1.45;0.73;;;19.60;50.00;;;;;;5037610;28;20052;-67
2024/01/19 04:08:07;;;;;;;1.17;0.70;;;19.60;49.90;;;;;;5037260;28;20447;-67
2024/01/19 04:10:33;;;;;;;1.65;0.90;;;19.60;49.90;;;;;;5037953;28;20033;-67
2024/01/19 04:12:59;;;;;;;1.38;0.88;;;19.60;49.90;;;;;;5039445;28;20104;-62
2024/01/19 04:15:25;;;;;;;1.50;0.90;;;19.60;49.90;;;;;;5036620;28;20446;-62
2024/01/19 04:17:51;;;;;;;1.75;0.88;;;19.60;49.90;;;;;;5037292;28;20021;-60
2024/01/19 04:20:16;;;;;;;1.50;0.90;;;19.60;50.00;;;;;;5039686;28;20037;-60
2024/01/19 04:22:42;;;;;;;1.20;0.90;;;19.60;50.00;;;;;;5042935;28;20385;-64
2024/01/19 04:25:08;;;;;;;1.20;0.77;;;19.60;49.90;;;;;;5042357;28;20075;-61
2024/01/19 04:27:33;;;;;;;1.20;0.80;;;19.60;50.00;;;;;;5042323;28;20094;-61
2024/01/19 04:29:59;;;;;;;1.58;0.90;;;19.60;50.00;;;;;;5040723;28;20056;-62
2024/01/19 04:32:24;;;;;;;1.08;0.70;;;19.60;49.90;;;;;;5041747;28;20036;-61
2024/01/19 04:34:50;;;;;;;1.42;0.77;;;19.50;49.90;;;;;;5038353;28;20396;-69
2024/01/19 04:37:16;;;;;;;1.65;0.90;;;19.60;50.00;;;;;;5040624;28;20021;-68
2024/01/19 04:39:41;;;;;;;1.52;0.88;;;19.50;49.90;;;;;;5040181;28;20035;-69
2024/01/19 04:42:07;;;;;;;1.17;0.80;;;19.50;50.00;;;;;;5040019;28;20033;-68
2024/01/19 04:44:33;;;;;;;1.00;0.75;;;19.50;50.00;;;;;;5039436;28;20112;-69
2024/01/19 04:46:59;;;;;;;1.17;0.70;;;19.50;50.00;;;;;;5040991;28;20049;-68
2024/01/19 04:49:25;;;;;;;1.65;0.85;;;19.50;50.00;;;;;;5038881;28;20034;-67
2024/01/19 04:51:50;;;;;;;1.58;0.93;;;19.50;50.50;;;;;;5040233;28;20390;-69
2024/01/19 04:54:16;;;;;;;0.98;0.73;;;19.50;50.50;;;;;;5040915;28;20025;-67
2024/01/19 04:56:41;;;;;;;1.00;0.70;;;19.50;50.10;;;;;;5040208;28;20452;-67
2024/01/19 04:59:07;;;;;;;2.42;0.80;;;19.50;50.10;;;;;;5043558;28;20037;-68
2024/01/19 05:01:32;;;;;;;1.15;0.80;;;19.50;50.10;;;;;;5039192;28;20029;-67
2024/01/19 05:03:58;;;;;;;0.90;0.70;;;19.50;50.10;;;;;;5039523;28;20489;-67
2024/01/19 05:06:24;;;;;;;1.10;0.70;;;19.50;50.10;;;;;;5037455;28;20033;-66
2024/01/19 05:08:50;;;;;;;1.42;0.73;;;19.50;50.10;;;;;;5036732;28;20029;-67
2024/01/19 05:11:15;;;;;;;1.33;0.70;;;19.40;50.10;;;;;;5040445;28;20025;-67
2024/01/19 05:13:41;;;;;;;1.02;0.70;;;19.40;50.10;;;;;;5042328;28;20070;-65
2024/01/19 05:16:08;;;;;;;1.25;0.70;;;19.40;50.10;;;;;;5039737;28;20025;-64
2024/01/19 05:18:34;;;;;;;1.08;0.70;;;19.40;50.10;;;;;;5038954;28;20025;-65
2024/01/19 05:21:01;;;;;;;1.13;0.80;;;19.40;50.10;;;;;;5041720;28;20025;-65
2024/01/19 05:23:27;;;;;;;1.45;0.95;;;19.40;50.10;;;;;;5038453;28;20037;-62
2024/01/19 05:25:52;;;;;;;1.17;0.80;;;19.40;50.10;;;;;;5037808;28;20417;-62
2024/01/19 05:28:18;;;;;;;1.42;0.90;;;19.40;50.20;;;;;;5037028;28;20034;-63
2024/01/19 05:30:44;;;;;;;1.10;0.70;;;19.40;50.20;;;;;;5039369;28;20029;-62
2024/01/19 05:33:09;;;;;;;1.15;0.77;;;19.40;50.20;;;;;;5039061;28;20028;-62
2024/01/19 05:35:35;;;;;;;1.33;0.80;;;19.40;50.20;;;;;;5037130;28;20112;-62
2024/01/19 05:38:01;;;;;;;1.90;1.00;;;19.40;50.70;;;;;;5039844;28;20032;-63
2024/01/19 05:40:26;;;;;;;1.58;0.90;;;19.40;50.20;;;;;;5039386;28;20032;-63
2024/01/19 05:42:52;;;;;;;1.23;0.93;;;19.40;50.20;;;;;;5039655;28;20060;-66
2024/01/19 05:45:18;;;;;;;1.70;1.10;;;19.40;50.20;;;;;;5039114;28;20041;-61
2024/01/19 05:47:44;;;;;;;1.35;0.90;;;19.40;50.30;;;;;;5040222;28;20492;-64
2024/01/19 05:50:10;;;;;;;1.77;1.10;;;19.40;50.30;;;;;;5037964;28;20095;-62
2024/01/19 05:52:35;;;;;;;1.42;0.90;;;19.40;50.30;;;;;;5040136;28;20041;-62
2024/01/19 05:55:01;;;;;;;1.90;1.00;;;19.40;50.30;;;;;;5038625;28;20465;-63
2024/01/19 05:57:26;;;;;;;1.73;0.98;;;19.40;50.40;;;;;;5037120;28;20032;-63
2024/01/19 05:59:52;;;;;;;1.85;0.98;;;19.30;50.30;;;;;;5037232;28;20040;-62
2024/01/19 06:02:20;;;;;;;2.00;1.10;;;19.30;50.30;;;;;;5041056;28;20542;-63
2024/01/19 06:04:45;;;;;;;1.50;1.10;;;19.30;50.40;;;;;;5035795;28;20453;-62
2024/01/19 06:07:11;;;;;;;1.75;1.10;;;19.30;50.40;;;;;;5039115;28;20065;-62
2024/01/19 06:09:36;;;;;;;2.40;1.40;;;19.30;50.40;;;;;;5038873;28;20527;-62
2024/01/19 06:12:03;;;;;;;1.48;0.90;;;19.30;50.40;;;;;;5038725;28;20025;-61
2024/01/19 06:14:28;;;;;;;1.88;0.93;;;19.30;50.50;;;;;;5038380;28;20076;-62
2024/01/19 06:16:54;;;;;;;2.08;1.17;;;19.30;50.50;;;;;;5038205;28;20025;-62
2024/01/19 06:19:20;;;;;;;2.20;1.20;;;19.30;50.50;;;;;;5037085;28;20060;-62
2024/01/19 06:21:45;;;;;;;2.10;1.35;;;19.30;50.60;;;;;;5035379;28;20033;-64
2024/01/19 06:24:17;;;;;;;1.60;1.10;;;19.30;50.60;;;;;;5040178;28;20368;-62
2024/01/19 06:26:46;;;;;;;2.67;1.45;;;19.20;51.00;;;;;;5038401;28;20440;-61
2024/01/19 06:29:12;;;;;;;2.05;1.30;;;19.30;50.60;;;;;;5038204;28;20033;-62
2024/01/19 06:31:44;;;;;;;2.38;1.40;;;19.20;50.60;;;;;;5038843;28;20362;-62
2024/01/19 06:34:11;;;;;;;2.22;1.40;;;19.20;50.60;;;;;;5037914;28;20040;-66
2024/01/19 06:36:36;;;;;;;2.75;1.30;;;19.20;50.70;;;;;;5038439;28;20080;-67
2024/01/19 06:39:02;;;;;;;2.28;1.20;;;19.20;50.70;;;;;;5039537;28;20446;-66
2024/01/19 06:41:28;;;;;;;2.55;1.30;;;19.20;50.70;;;;;;5039542;28;20112;-66
2024/01/19 06:43:53;;;;;;;2.47;1.17;;;19.20;50.70;;;;;;5039890;28;20370;-67
2024/01/19 06:46:19;;;;;;;2.42;1.42;;;19.20;50.70;;;;;;5038677;28;20035;-66
2024/01/19 06:48:45;;;;;;;2.35;1.48;;;19.20;50.70;;;;;;5038673;28;20021;-66
2024/01/19 06:51:18;;;;;;;2.40;1.27;;;19.20;50.90;;;;;;5036407;28;20083;-66
2024/01/19 06:53:43;;;;;;;2.65;1.30;;;19.20;50.90;;;;;;5038684;28;20404;-66
2024/01/19 06:56:09;;;;;;;2.97;1.30;;;19.20;50.90;;;;;;5039823;28;20108;-66
2024/01/19 06:58:35;;;;;;;2.78;1.33;;;19.20;51.40;;;;;;5040656;28;20418;-66
2024/01/19 07:01:00;;;;;;;2.10;1.40;;;19.20;50.90;;;;;;5038493;28;20020;-65
2024/01/19 07:03:26;;;;;;;2.38;1.52;;;19.20;50.90;;;;;;5040388;28;20896;-66
2024/01/19 07:05:51;;;;;;;2.58;1.40;;;19.20;50.90;;;;;;5036355;28;20026;-66
2024/01/19 07:08:17;;;;;;;2.47;1.35;;;19.20;50.90;;;;;;5037581;28;20080;-66
2024/01/19 07:10:43;;;;;;;3.03;1.60;;;19.20;50.90;;;;;;5036890;28;20028;-66
2024/01/19 07:13:08;;;;;;;3.72;1.48;;;19.20;50.90;;;;;;5039163;28;20056;-66
2024/01/19 07:15:34;;;;;;;3.50;1.50;;;19.20;50.90;;;;;;5036081;28;20033;-66
2024/01/19 07:17:59;;;;;;;2.88;1.35;;;19.10;50.90;;;;;;5039954;28;20025;-66
2024/01/19 07:20:25;;;;;;;2.42;1.40;;;19.10;50.90;;;;;;5038158;28;20031;-66
2024/01/19 07:22:53;;;;;;;2.45;1.50;;;19.10;50.90;;;;;;5037218;28;20029;-65
2024/01/19 07:25:19;;;;;;;4.43;1.70;;;19.10;50.90;;;;;;5036855;28;20120;-66
2024/01/19 07:27:44;;;;;;;3.30;1.60;;;19.10;50.90;;;;;;5038761;28;20147;-66
2024/01/19 07:30:10;;;;;;;2.92;1.45;;;19.10;50.90;;;;;;5038183;28;20134;-65
2024/01/19 07:32:36;;;;;;;3.28;1.40;;;19.20;51.00;;;;;;5036577;28;20048;-66
2024/01/19 07:35:02;;;;;;;3.00;1.38;;;19.20;50.90;;;;;;5035642;28;20025;-63
2024/01/19 07:37:27;;;;;;;2.97;1.50;;;19.10;50.90;;;;;;5037889;28;20036;-61
2024/01/19 07:39:53;;;;;;;2.67;1.50;;;19.10;50.90;;;;;;5037563;28;20108;-62
2024/01/19 07:42:18;;;;;;;3.10;1.63;;;19.20;51.00;;;;;;5035750;28;20040;-62
2024/01/19 07:44:44;;;;;;;3.80;1.50;;;19.10;50.90;;;;;;5039419;28;20342;-66
2024/01/19 07:47:10;;;;;;;2.78;1.50;;;19.10;51.00;;;;;;5035093;28;20040;-66
2024/01/19 07:49:35;;;;;;;3.17;1.52;;;19.10;50.90;;;;;;5036470;28;20155;-66
2024/01/19 07:52:01;;;;;;;2.55;1.42;;;19.10;50.90;;;;;;5032328;28;20042;-66
2024/01/19 07:54:27;;;;;;;4.13;1.65;;;19.10;50.90;;;;;;5040211;28;20072;-66
2024/01/19 07:56:52;;;;;;;3.05;1.60;;;19.10;50.90;;;;;;5041628;28;20029;-67
2024/01/19 07:59:18;;;;;;;3.70;1.60;;;19.10;50.90;;;;;;5040591;28;20147;-66
2024/01/19 08:01:43;;;;;;;4.00;1.73;;;19.10;50.90;;;;;;5039935;28;20032;-66
2024/01/19 08:04:09;;;;;;;2.75;1.75;;;19.10;50.90;;;;;;5043267;28;20037;-65
2024/01/19 08:06:34;;;;;;;2.97;1.50;;;19.10;50.90;;;;;;5040288;28;20040;-65
2024/01/19 08:09:00;;;;;;;3.35;1.60;;;19.10;50.90;;;;;;5041023;28;20096;-65
2024/01/19 08:11:26;;;;;;;4.45;1.60;;;19.10;50.90;;;;;;5040211;28;20473;-65
2024/01/19 08:13:51;;;;;;;4.03;1.73;;;19.10;50.90;;;;;;5039155;28;20060;-65
2024/01/19 08:16:17;;;;;;;3.30;1.65;;;19.10;51.00;;;;;;5040549;28;20121;-65
2024/01/19 08:18:43;;;;;;;3.00;1.52;;;19.10;50.90;;;;;;5040683;28;20033;-65
2024/01/19 08:21:08;;;;;;;2.67;1.45;;;19.10;50.90;;;;;;5039329;28;20108;-65
2024/01/19 08:23:34;;;;;;;2.75;1.63;;;19.10;51.40;;;;;;5041908;28;20891;-65
2024/01/19 08:25:59;;;;;;;2.72;1.50;;;19.10;50.90;;;;;;5041796;28;20150;-65
2024/01/19 08:28:25;;;;;;;3.53;1.90;;;19.10;51.00;;;;;;5041474;28;20044;-65
2024/01/19 08:30:51;;;;;;;4.18;1.75;;;19.10;50.90;;;;;;5040828;28;20116;-65
2024/01/19 08:33:16;;;;;;;2.50;1.50;;;19.10;50.90;;;;;;5042259;28;20063;-65
2024/01/19 08:35:42;;;;;;;2.90;1.60;;;19.10;50.90;;;;;;5037512;28;20014;-65
2024/01/19 08:38:08;;;;;;;3.65;1.90;;;19.10;51.00;;;;;;5041330;28;20453;-65
2024/01/19 08:40:34;;;;;;;2.75;1.60;;;19.00;50.80;;;;;;5039935;28;20119;-65
2024/01/19 08:43:00;;;;;;;4.78;2.08;;;19.00;50.90;;;;;;5040133;28;20025;-65
2024/01/19 08:45:28;;;;;;;3.35;2.00;;;19.00;50.90;;;;;;5039967;28;20021;-66
2024/01/19 08:47:56;;;;;;;3.65;1.80;;;19.00;50.90;;;;;;5039887;28;20388;-66
2024/01/19 08:50:22;;;;;;;3.00;1.58;;;19.00;50.90;;;;;;5037789;28;20026;-66
2024/01/19 08:52:47;;;;;;;2.30;1.40;;;19.00;50.90;;;;;;5054595;28;20040;-65
2024/01/19 08:55:13;;;;;;;3.05;1.50;;;19.00;50.90;;;;;;5045717;28;20104;-65
2024/01/19 08:57:39;;;;;;;3.03;1.42;;;19.00;50.90;;;;;;5040982;28;20342;-65
2024/01/19 09:00:07;;;;;;;3.60;1.70;;;19.00;51.40;;;;;;5040933;28;20093;-65
2024/01/19 09:02:33;;;;;;;2.90;1.55;;;19.00;50.90;;;;;;5040899;28;20032;-66
2024/01/19 09:04:58;;;;;;;3.85;1.70;;;19.00;50.90;;;;;;5039257;28;20102;-65
2024/01/19 09:07:24;;;;;;;3.03;1.50;;;19.00;50.90;;;;;;5036015;28;20067;-65
2024/01/19 09:09:50;;;;;;;2.67;1.55;;;19.00;51.40;;;;;;5042254;28;20045;-66
2024/01/19 09:12:15;;;;;;;3.28;1.63;;;19.00;50.90;;;;;;5041361;28;20075;-66
2024/01/19 09:14:41;;;;;;;2.72;1.42;;;19.00;50.90;;;;;;5040045;28;20025;-67
2024/01/19 09:17:06;;;;;;;2.70;1.50;;;19.00;50.90;;;;;;5039269;28;20438;-67
2024/01/19 09:19:32;;;;;;;3.42;1.42;;;19.00;50.90;;;;;;5039738;28;20029;-67
2024/01/19 09:21:58;;;;;;;2.53;1.60;;;19.00;50.90;;;;;;5053378;28;20394;-66
2024/01/19 09:24:24;;;;;;;2.58;1.60;;;19.00;50.90;;;;;;5043242;28;20072;-67
2024/01/19 09:26:49;;;;;;;2.78;1.58;;;19.00;50.90;;;;;;5041117;28;20049;-67
2024/01/19 09:29:16;;;;;;;2.83;1.50;;;19.00;50.90;;;;;;5039327;28;20034;-66
2024/01/19 09:31:46;;;;;;;2.30;1.40;;;19.00;50.80;;;;;;5038580;28;20108;-67
2024/01/19 09:34:12;;;;;;;2.70;1.52;;;19.00;50.90;;;;;;5042045;28;20416;-66
2024/01/19 09:36:39;;;;;;;2.53;1.42;;;19.00;50.80;;;;;;5038074;28;20028;-67
2024/01/19 09:39:06;;;;;;;2.47;1.42;;;18.90;50.80;;;;;;5038070;28;20284;-67
2024/01/19 09:41:39;;;;;;;2.22;1.30;;;19.00;50.90;;;;;;5052272;28;20029;-67
2024/01/19 09:44:12;;;;;;;2.88;1.45;;;18.90;50.80;;;;;;5039707;28;20030;-68
2024/01/19 09:47:15;;;;;;;2.67;1.58;;;19.00;50.90;;;;;;5039518;28;20032;-67
2024/01/19 09:50:06;;;;;;;2.85;1.80;;;18.90;51.40;;;;;;5039622;28;20108;-68
2024/01/19 09:52:49;;;;;;;2.75;1.33;;;18.90;50.80;;;;;;5037137;28;20075;-69
2024/01/19 09:55:15;;;;;;;2.85;1.45;;;18.90;50.80;;;;;;5040659;28;20071;-68
2024/01/19 09:57:48;;;;;;;2.88;1.52;;;18.90;50.80;;;;;;5038446;28;20021;-67
2024/01/19 10:00:16;;;;;;;2.75;1.60;;;18.90;50.80;;;;;;5037814;28;20030;-67
2024/01/19 10:02:47;;;;;;;2.20;1.40;;;18.90;50.80;;;;;;5039243;28;20107;-66
2024/01/19 10:05:14;;;;;;;2.78;1.40;;;18.90;50.80;;;;;;5039414;28;20029;-66
2024/01/19 10:07:48;;;;;;;3.22;1.70;;;18.90;50.80;;;;;;5037263;28;20041;-66
2024/01/19 10:10:15;;;;;;;2.65;1.50;;;18.90;50.80;;;;;;5037811;28;20490;-66
2024/01/19 10:12:41;;;;;;;2.13;1.35;;;18.90;50.80;;;;;;5038543;28;20021;-67
2024/01/19 10:15:11;;;;;;;3.20;1.70;;;18.90;50.80;;;;;;5038414;28;20033;-67
2024/01/19 10:17:37;;;;;;;2.72;1.48;;;18.90;51.40;;;;;;5035763;28;20084;-67
2024/01/19 10:20:03;;;;;;;2.63;1.42;;;18.90;50.80;;;;;;5037317;28;20060;-68
2024/01/19 10:22:30;;;;;;;2.85;1.67;;;18.90;50.80;;;;;;5036622;28;20501;-68
2024/01/19 10:25:03;;;;;;;4.20;1.80;;;18.90;50.80;;;;;;5037959;28;20024;-63
2024/01/19 10:27:50;;;;;;;2.83;1.42;;;18.90;50.80;;;;;;5034472;28;20024;-61
2024/01/19 10:30:28;;;;;;;2.55;1.42;;;18.90;50.80;;;;;;5038365;28;20373;-61
2024/01/19 10:33:04;;;;;;;2.90;1.70;;;18.90;50.80;;;;;;5039519;28;20549;-63
2024/01/19 10:35:29;;;;;;;2.25;1.30;;;18.90;50.80;;;;;;5038348;28;20034;-61
2024/01/19 10:38:04;;;;;;;2.58;1.35;;;18.90;50.80;;;;;;5035050;28;20106;-62
2024/01/19 10:40:31;;;;;;;3.03;1.60;;;18.90;50.80;;;;;;5039126;28;20033;-62
2024/01/19 10:42:57;;;;;;;2.25;1.35;;;18.90;50.70;;;;;;5037954;28;20047;-63
2024/01/19 10:45:30;;;;;;;2.58;1.60;;;18.90;50.80;;;;;;5038460;28;20468;-63
2024/01/19 10:48:02;;;;;;;2.25;1.45;;;18.90;50.80;;;;;;5038812;28;20029;-63
2024/01/19 10:50:29;;;;;;;3.42;1.60;;;18.80;51.20;;;;;;5039689;28;20050;-62
2024/01/19 10:52:59;;;;;;;2.20;1.40;;;18.90;50.80;;;;;;5036567;28;20125;-61
2024/01/19 10:55:27;;;;;;;2.45;1.50;;;18.90;50.80;;;;;;5035583;28;20025;-61
2024/01/19 10:58:05;;;;;;;2.22;1.40;;;18.90;50.70;;;;;;5036111;28;20033;-62
2024/01/19 11:00:31;;;;;;;2.17;1.42;;;18.90;50.70;;;;;;5039338;28;20454;-62
2024/01/19 11:03:00;;;;;;;2.50;1.35;;;18.90;50.70;;;;;;5038156;28;20020;-66
2024/01/19 11:05:26;;;;;;;2.60;1.40;;;18.80;51.20;;;;;;5035631;28;20030;-68
2024/01/19 11:08:01;;;;;;;2.78;1.60;;;18.90;50.70;;;;;;5034022;28;20030;-67
2024/01/19 11:10:29;;;;;;;2.20;1.40;;;18.90;50.70;;;;;;5036179;28;20459;-67
2024/01/19 11:12:57;;;;;;;2.15;1.20;;;18.90;50.70;;;;;;5037533;28;20083;-63
2024/01/19 11:15:48;;;;;;;2.42;1.40;;;18.90;50.70;;;;;;5035866;28;20488;-62
2024/01/19 11:18:15;;;;;;;2.38;1.30;;;18.80;50.70;;;;;;5038263;28;20132;-61
2024/01/19 11:20:41;;;;;;;2.35;1.40;;;18.80;50.70;;;;;;5035754;28;20025;-62
2024/01/19 11:23:07;;;;;;;3.05;1.50;;;18.90;50.70;;;;;;5036288;28;20080;-62
2024/01/19 11:25:39;;;;;;;2.72;1.42;;;18.90;50.70;;;;;;5038683;28;20031;-62
2024/01/19 11:28:18;;;;;;;2.63;1.33;;;18.90;50.70;;;;;;5036573;28;20051;-63
2024/01/19 11:31:22;;;;;;;2.63;1.48;;;18.90;50.70;;;;;;5052309;28;20120;-62
2024/01/19 11:33:48;;;;;;;2.53;1.50;;;18.90;50.70;;;;;;5032011;28;20036;-67
2024/01/19 11:36:33;;;;;;;2.25;1.40;;;18.90;50.70;;;;;;5035982;28;20026;-67
2024/01/19 11:38:59;;;;;;;2.20;1.33;;;18.80;50.60;;;;;;5038731;28;20022;-68
2024/01/19 11:41:46;;;;;;;1.77;1.20;;;18.90;50.70;;;;;;5034202;28;20025;-68
2024/01/19 11:44:42;;;;;;;2.20;1.35;;;18.80;50.60;;;;;;5036721;28;20457;-68
2024/01/19 11:47:08;;;;;;;2.53;1.45;;;18.90;50.70;;;;;;5037569;28;20032;-69
2024/01/19 11:49:38;;;;;;;2.42;1.40;;;18.90;50.70;;;;;;5037173;28;20473;-68
2024/01/19 11:52:23;;;;;;;2.13;1.27;;;18.90;50.70;;;;;;5036975;28;20025;-68
2024/01/19 11:54:50;;;;;;;2.10;1.20;;;18.90;50.70;;;;;;5037598;28;20116;-68
2024/01/19 11:57:20;;;;;;;2.50;1.40;;;18.80;50.60;;;;;;5039313;28;20059;-67
2024/01/19 11:59:47;;;;;;;2.22;1.30;;;18.80;50.60;;;;;;5036678;28;20070;-69
2024/01/19 12:02:33;;;;;;;2.45;1.55;;;18.80;51.10;;;;;;5038217;28;20128;-68
2024/01/19 12:05:03;;;;;;;2.47;1.50;;;18.90;50.70;;;;;;5038067;28;20489;-68
2024/01/19 12:07:29;;;;;;;2.30;1.60;;;18.80;50.60;;;;;;5033121;28;20109;-70
2024/01/19 12:10:12;;;;;;;3.28;1.50;;;18.80;50.60;;;;;;5037133;28;20037;-69
2024/01/19 12:12:39;;;;;;;3.67;1.60;;;18.80;51.10;;;;;;5036852;28;20143;-70
2024/01/19 12:15:09;;;;;;;2.58;1.50;;;18.80;50.60;;;;;;5038058;28;20017;-69
2024/01/19 12:17:40;;;;;;;2.67;1.50;;;18.80;50.60;;;;;;5034761;28;20060;-68
2024/01/19 12:20:09;;;;;;;2.33;1.40;;;18.90;50.60;;;;;;5038448;28;20086;-68
2024/01/19 12:22:38;;;;;;;3.25;1.58;;;18.80;50.50;;;;;;5034055;28;20076;-68
2024/01/19 12:25:20;;;;;;;2.70;1.60;;;18.80;50.50;;;;;;5033991;28;20034;-67
2024/01/19 12:27:49;;;;;;;2.53;1.50;;;18.80;50.50;;;;;;5036356;28;20415;-66
2024/01/19 12:30:17;;;;;;;2.15;1.40;;;18.80;50.50;;;;;;5032136;28;20034;-66
2024/01/19 12:32:43;;;;;;;2.30;1.55;;;18.80;50.40;;;;;;5037340;28;20521;-66
2024/01/19 12:35:11;;;;;;;3.38;1.60;;;18.80;50.40;;;;;;5037433;28;20659;-66
2024/01/19 12:37:37;;;;;;;3.08;1.65;;;18.80;50.40;;;;;;5034543;28;20468;-66
2024/01/19 12:40:16;;;;;;;2.15;1.30;;;18.80;50.40;;;;;;5038434;28;20036;-66
2024/01/19 12:42:42;;;;;;;2.65;1.40;;;18.80;50.30;;;;;;5041007;28;20032;-66
2024/01/19 12:45:12;;;;;;;2.65;1.25;;;18.80;50.30;;;;;;5041108;28;20045;-64
2024/01/19 12:47:45;;;;;;;2.13;1.42;;;18.80;50.30;;;;;;5038975;28;20033;-64
2024/01/19 12:50:11;;;;;;;2.75;1.40;;;18.80;50.30;;;;;;5040856;28;20029;-64